ASY468 KNUW-PHNL
Flight info
| Callsign | ASY468 |
|---|---|
| Flight time | 5h 33m |
| Altitude | 36000 |
| Route | MCCUL HQM C1418 SEDAR A331 ZAGER/N0430F380 A331 ZEMOM/N0430F400 A331 ZIGIE MAGGI3 |
| Aircraft | P8/M-SDE3FGHIRWZ/LB1 |
Departure
| Time | 2026-05-01 07:26 |
|---|---|
| Airport | Whidbey Island Naval Air Station (Ault Field) (KNUW) |
Arrival
| Time | 2026-05-01 12:59 |
|---|---|
| Airport | Daniel K. Inouye International Airport (PHNL) |
| Time | Latitude | Longitude | Altitude | Speed | Heading |
|---|---|---|---|---|---|
| 2026-05-01 07:23 | 48.35022 | -122.66995 | 27 ft | 35 kts | 317° |
| 2026-05-01 07:23 | 48.35358 | -122.67046 | 27 ft | 23 kts | 28° |
| 2026-05-01 07:24 | 48.35522 | -122.66930 | 27 ft | 30 kts | 29° |
| 2026-05-01 07:24 | 48.35716 | -122.66767 | 25 ft | 33 kts | 30° |
| 2026-05-01 07:24 | 48.35918 | -122.66603 | 26 ft | 33 kts | 28° |
| 2026-05-01 07:24 | 48.36077 | -122.66395 | 25 ft | 29 kts | 65° |
| 2026-05-01 07:25 | 48.36064 | -122.66166 | 24 ft | 22 kts | 142° |
| 2026-05-01 07:25 | 48.35794 | -122.65982 | 26 ft | 79 kts | 155° |
| 2026-05-01 07:25 | 48.35072 | -122.65472 | 27 ft | 149 kts | 155° |
| 2026-05-01 07:25 | 48.33988 | -122.64699 | 385 ft | 181 kts | 155° |
| 2026-05-01 07:26 | 48.32798 | -122.63998 | 1388 ft | 179 kts | 162° |
| 2026-05-01 07:26 | 48.31595 | -122.63541 | 2177 ft | 194 kts | 181° |
| 2026-05-01 07:26 | 48.30392 | -122.64405 | 2828 ft | 200 kts | 229° |
| 2026-05-01 07:26 | 48.29869 | -122.66426 | 3227 ft | 223 kts | 265° |
| 2026-05-01 07:27 | 48.29714 | -122.68872 | 3442 ft | 248 kts | 261° |
| 2026-05-01 07:27 | 48.29402 | -122.71518 | 3835 ft | 264 kts | 257° |
| 2026-05-01 07:27 | 48.29006 | -122.74248 | 4607 ft | 268 kts | 256° |
| 2026-05-01 07:27 | 48.28566 | -122.76963 | 5616 ft | 266 kts | 254° |
| 2026-05-01 07:28 | 48.28097 | -122.79656 | 6565 ft | 268 kts | 252° |
| 2026-05-01 07:28 | 48.27604 | -122.82363 | 7385 ft | 271 kts | 252° |
| 2026-05-01 07:28 | 48.27197 | -122.84537 | 8054 ft | 274 kts | 251° |
| 2026-05-01 07:28 | 48.26672 | -122.87297 | 8905 ft | 276 kts | 251° |
| 2026-05-01 07:29 | 48.26136 | -122.90080 | 9754 ft | 280 kts | 251° |
| 2026-05-01 07:29 | 48.25595 | -122.92867 | 10528 ft | 283 kts | 251° |
| 2026-05-01 07:29 | 48.25041 | -122.95712 | 11302 ft | 286 kts | 251° |
| 2026-05-01 07:29 | 48.24480 | -122.98586 | 12083 ft | 289 kts | 251° |
| 2026-05-01 07:30 | 48.23910 | -123.01491 | 12856 ft | 292 kts | 251° |
| 2026-05-01 07:30 | 48.23333 | -123.04424 | 13650 ft | 295 kts | 251° |
| 2026-05-01 07:30 | 48.22751 | -123.07380 | 14377 ft | 298 kts | 251° |
| 2026-05-01 07:30 | 48.21995 | -123.10228 | 15062 ft | 298 kts | 236° |
| 2026-05-01 07:31 | 48.20660 | -123.12609 | 15791 ft | 298 kts | 220° |
| 2026-05-01 07:31 | 48.15223 | -123.17419 | 17891 ft | 307 kts | 208° |
| 2026-05-01 07:32 | 48.11416 | -123.20497 | 19157 ft | 313 kts | 209° |
| 2026-05-01 07:32 | 48.09493 | -123.22065 | 19735 ft | 317 kts | 209° |
| 2026-05-01 07:33 | 48.05586 | -123.25272 | 20891 ft | 324 kts | 210° |
| 2026-05-01 07:33 | 48.03599 | -123.26909 | 21460 ft | 327 kts | 210° |
| 2026-05-01 07:33 | 47.99562 | -123.30239 | 22588 ft | 334 kts | 210° |
| 2026-05-01 07:34 | 47.97519 | -123.31924 | 23145 ft | 338 kts | 210° |
| 2026-05-01 07:34 | 47.93365 | -123.35348 | 24141 ft | 344 kts | 210° |
| 2026-05-01 07:34 | 47.91260 | -123.37081 | 24615 ft | 346 kts | 210° |
| 2026-05-01 07:35 | 47.89141 | -123.38824 | 25096 ft | 349 kts | 211° |
| 2026-05-01 07:35 | 47.87014 | -123.40573 | 25556 ft | 352 kts | 211° |
| 2026-05-01 07:35 | 47.84860 | -123.42341 | 26002 ft | 355 kts | 211° |
| 2026-05-01 07:35 | 47.82691 | -123.44120 | 26457 ft | 357 kts | 211° |
| 2026-05-01 07:36 | 47.80513 | -123.45905 | 26961 ft | 357 kts | 211° |
| 2026-05-01 07:36 | 47.78341 | -123.47682 | 27529 ft | 355 kts | 211° |
| 2026-05-01 07:36 | 47.76203 | -123.49430 | 28080 ft | 354 kts | 211° |
| 2026-05-01 07:36 | 47.74045 | -123.51193 | 28604 ft | 354 kts | 211° |
| 2026-05-01 07:37 | 47.69747 | -123.54701 | 29657 ft | 352 kts | 212° |
| 2026-05-01 07:37 | 47.67601 | -123.56449 | 30168 ft | 351 kts | 212° |
| 2026-05-01 07:37 | 47.65467 | -123.58187 | 30597 ft | 350 kts | 212° |
| 2026-05-01 07:38 | 47.63327 | -123.59927 | 30982 ft | 350 kts | 212° |
| 2026-05-01 07:38 | 47.61198 | -123.61657 | 31379 ft | 349 kts | 212° |
| 2026-05-01 07:38 | 47.56943 | -123.65110 | 32143 ft | 348 kts | 212° |
| 2026-05-01 07:39 | 47.54823 | -123.66828 | 32519 ft | 347 kts | 212° |
| 2026-05-01 07:39 | 47.52702 | -123.68545 | 32876 ft | 347 kts | 212° |
| 2026-05-01 07:39 | 47.48432 | -123.72000 | 33231 ft | 356 kts | 212° |
| 2026-05-01 07:40 | 47.44006 | -123.75577 | 33495 ft | 367 kts | 212° |
| 2026-05-01 07:40 | 47.41757 | -123.77388 | 33762 ft | 369 kts | 212° |
| 2026-05-01 07:40 | 47.39508 | -123.79196 | 34115 ft | 368 kts | 212° |
| 2026-05-01 07:41 | 47.37266 | -123.80996 | 34452 ft | 366 kts | 213° |
| 2026-05-01 07:41 | 47.35034 | -123.82787 | 34746 ft | 365 kts | 213° |
| 2026-05-01 07:41 | 47.30582 | -123.86357 | 35280 ft | 363 kts | 213° |
| 2026-05-01 07:42 | 47.28365 | -123.88134 | 35566 ft | 362 kts | 213° |
| 2026-05-01 07:42 | 47.26153 | -123.89904 | 35823 ft | 362 kts | 213° |
| 2026-05-01 07:42 | 47.23943 | -123.91671 | 36070 ft | 361 kts | 213° |
| 2026-05-01 07:43 | 47.19460 | -123.95255 | 36103 ft | 372 kts | 213° |
| 2026-05-01 07:43 | 47.12497 | -124.00803 | 36106 ft | 387 kts | 212° |
| 2026-05-01 07:44 | 47.03123 | -124.08242 | 36101 ft | 407 kts | 212° |
| 2026-05-01 07:45 | 46.98123 | -124.12198 | 36104 ft | 416 kts | 212° |
| 2026-05-01 07:45 | 46.93457 | -124.17246 | 36102 ft | 417 kts | 229° |
| 2026-05-01 07:46 | 46.89803 | -124.23809 | 36103 ft | 422 kts | 234° |
| 2026-05-01 07:47 | 46.84400 | -124.34012 | 36103 ft | 425 kts | 234° |
| 2026-05-01 07:47 | 46.80754 | -124.40810 | 36108 ft | 425 kts | 234° |
| 2026-05-01 07:48 | 46.75271 | -124.50948 | 36109 ft | 423 kts | 234° |
| 2026-05-01 07:48 | 46.71628 | -124.57656 | 36111 ft | 421 kts | 234° |
| 2026-05-01 07:49 | 46.66198 | -124.67628 | 36117 ft | 417 kts | 234° |
| 2026-05-01 07:50 | 46.62594 | -124.74227 | 36124 ft | 415 kts | 233° |
| 2026-05-01 07:50 | 46.57819 | -124.82945 | 36122 ft | 413 kts | 233° |
| 2026-05-01 07:51 | 46.54240 | -124.89463 | 36130 ft | 412 kts | 233° |
| 2026-05-01 07:52 | 46.48866 | -124.99222 | 36135 ft | 412 kts | 233° |
| 2026-05-01 07:52 | 46.45275 | -125.05723 | 36146 ft | 413 kts | 233° |
| 2026-05-01 07:53 | 46.39873 | -125.15474 | 36148 ft | 414 kts | 233° |
| 2026-05-01 07:53 | 46.36280 | -125.21942 | 36150 ft | 415 kts | 233° |
| 2026-05-01 07:55 | 46.27200 | -125.38217 | 36159 ft | 416 kts | 232° |
| 2026-05-01 07:56 | 46.18092 | -125.54447 | 36161 ft | 415 kts | 232° |
| 2026-05-01 07:57 | 46.12631 | -125.64132 | 36161 ft | 414 kts | 232° |
| 2026-05-01 07:58 | 46.05362 | -125.76972 | 36170 ft | 413 kts | 232° |
| 2026-05-01 07:59 | 45.98131 | -125.89689 | 36172 ft | 411 kts | 232° |
| 2026-05-01 08:00 | 45.87266 | -126.08686 | 36172 ft | 409 kts | 232° |
| 2026-05-01 08:01 | 45.80028 | -126.21271 | 36183 ft | 409 kts | 231° |
| 2026-05-01 08:02 | 45.74599 | -126.30674 | 36180 ft | 408 kts | 231° |
| 2026-05-01 08:03 | 45.69165 | -126.40053 | 36185 ft | 408 kts | 231° |
| 2026-05-01 08:03 | 45.63719 | -126.49420 | 36184 ft | 408 kts | 231° |
| 2026-05-01 08:04 | 45.56492 | -126.61809 | 36205 ft | 407 kts | 231° |
| 2026-05-01 08:05 | 45.51062 | -126.71113 | 36198 ft | 406 kts | 233° |
| 2026-05-01 08:06 | 45.46665 | -126.81419 | 36205 ft | 406 kts | 239° |
| 2026-05-01 08:07 | 45.40987 | -126.95316 | 36206 ft | 406 kts | 239° |
| 2026-05-01 08:08 | 45.36700 | -127.05695 | 36211 ft | 406 kts | 239° |
| 2026-05-01 08:09 | 45.30986 | -127.19462 | 36210 ft | 405 kts | 239° |
| 2026-05-01 08:09 | 45.28111 | -127.26362 | 36213 ft | 405 kts | 238° |
| 2026-05-01 08:10 | 45.22355 | -127.40127 | 36217 ft | 405 kts | 238° |
| 2026-05-01 08:11 | 45.16578 | -127.53874 | 36218 ft | 406 kts | 238° |
| 2026-05-01 08:12 | 45.12239 | -127.64157 | 36224 ft | 406 kts | 238° |
| 2026-05-01 08:13 | 45.07887 | -127.74431 | 36226 ft | 406 kts | 238° |
| 2026-05-01 08:13 | 45.03525 | -127.84693 | 36231 ft | 406 kts | 237° |
| 2026-05-01 08:14 | 45.00612 | -127.91524 | 36236 ft | 406 kts | 237° |
| 2026-05-01 08:14 | 44.97686 | -127.98371 | 36233 ft | 406 kts | 237° |
| 2026-05-01 08:15 | 44.93296 | -128.08611 | 36235 ft | 407 kts | 237° |
| 2026-05-01 08:16 | 44.90358 | -128.15444 | 36238 ft | 407 kts | 237° |
| 2026-05-01 08:16 | 44.87420 | -128.22260 | 36241 ft | 407 kts | 237° |
| 2026-05-01 08:17 | 44.84477 | -128.29073 | 36242 ft | 407 kts | 237° |
| 2026-05-01 08:17 | 44.81525 | -128.35888 | 36243 ft | 407 kts | 237° |
| 2026-05-01 08:18 | 44.78572 | -128.42690 | 36244 ft | 407 kts | 237° |
| 2026-05-01 08:19 | 44.72662 | -128.56255 | 36250 ft | 408 kts | 237° |
| 2026-05-01 08:19 | 44.69693 | -128.63045 | 36251 ft | 408 kts | 236° |
| 2026-05-01 08:20 | 44.66712 | -128.69846 | 36250 ft | 408 kts | 236° |
| 2026-05-01 08:20 | 44.63729 | -128.76637 | 36249 ft | 408 kts | 236° |
| 2026-05-01 08:21 | 44.60741 | -128.83422 | 36255 ft | 409 kts | 236° |
| 2026-05-01 08:21 | 44.57749 | -128.90200 | 36258 ft | 409 kts | 236° |
| 2026-05-01 08:22 | 44.54752 | -128.96972 | 36262 ft | 409 kts | 236° |
| 2026-05-01 08:22 | 44.51751 | -129.03739 | 36261 ft | 409 kts | 236° |
| 2026-05-01 08:23 | 44.48743 | -129.10506 | 36261 ft | 409 kts | 236° |
| 2026-05-01 08:23 | 44.45734 | -129.17258 | 36262 ft | 409 kts | 236° |
| 2026-05-01 08:24 | 44.42719 | -129.24008 | 36266 ft | 409 kts | 236° |
| 2026-05-01 08:24 | 44.39698 | -129.30755 | 36264 ft | 409 kts | 236° |
| 2026-05-01 08:25 | 44.36674 | -129.37495 | 36261 ft | 409 kts | 236° |
| 2026-05-01 08:25 | 44.33644 | -129.44230 | 36269 ft | 409 kts | 236° |
| 2026-05-01 08:26 | 44.30611 | -129.50959 | 36266 ft | 409 kts | 236° |
| 2026-05-01 08:26 | 44.27571 | -129.57685 | 36267 ft | 410 kts | 236° |
| 2026-05-01 08:27 | 44.24546 | -129.64364 | 36265 ft | 410 kts | 236° |
| 2026-05-01 08:27 | 44.21495 | -129.71084 | 36265 ft | 410 kts | 236° |
| 2026-05-01 08:28 | 44.18441 | -129.77796 | 36271 ft | 410 kts | 236° |
| 2026-05-01 08:28 | 44.15383 | -129.84501 | 36274 ft | 410 kts | 235° |
| 2026-05-01 08:29 | 44.12320 | -129.91205 | 36272 ft | 410 kts | 235° |
| 2026-05-01 08:29 | 44.09251 | -129.97903 | 36272 ft | 411 kts | 235° |
| 2026-05-01 08:30 | 44.06172 | -130.04597 | 36276 ft | 411 kts | 235° |
| 2026-05-01 08:30 | 44.03087 | -130.11290 | 36273 ft | 411 kts | 235° |
| 2026-05-01 08:31 | 43.99998 | -130.17976 | 36271 ft | 411 kts | 235° |
| 2026-05-01 08:31 | 43.96905 | -130.24659 | 36276 ft | 411 kts | 235° |
| 2026-05-01 08:32 | 43.93808 | -130.31337 | 36274 ft | 411 kts | 235° |
| 2026-05-01 08:32 | 43.90705 | -130.38012 | 36275 ft | 412 kts | 235° |
| 2026-05-01 08:33 | 43.87596 | -130.44684 | 36273 ft | 412 kts | 235° |
| 2026-05-01 08:33 | 43.84488 | -130.51337 | 36280 ft | 412 kts | 235° |
| 2026-05-01 08:34 | 43.81368 | -130.58003 | 36279 ft | 412 kts | 235° |
| 2026-05-01 08:34 | 43.78272 | -130.64603 | 36275 ft | 412 kts | 235° |
| 2026-05-01 08:35 | 43.75145 | -130.71252 | 36276 ft | 412 kts | 235° |
| 2026-05-01 08:35 | 43.72012 | -130.77900 | 36278 ft | 412 kts | 235° |
| 2026-05-01 08:36 | 43.68877 | -130.84537 | 36275 ft | 412 kts | 235° |
| 2026-05-01 08:36 | 43.65739 | -130.91164 | 36272 ft | 412 kts | 235° |
| 2026-05-01 08:37 | 43.62594 | -130.97792 | 36276 ft | 413 kts | 235° |
| 2026-05-01 08:37 | 43.59444 | -131.04415 | 36282 ft | 413 kts | 235° |
| 2026-05-01 08:38 | 43.56825 | -131.09911 | 36273 ft | 413 kts | 235° |
| 2026-05-01 08:38 | 43.53661 | -131.16535 | 36276 ft | 413 kts | 235° |
| 2026-05-01 08:39 | 43.49983 | -131.24217 | 36276 ft | 413 kts | 235° |
| 2026-05-01 08:39 | 43.47327 | -131.29752 | 36274 ft | 414 kts | 236° |
| 2026-05-01 08:40 | 43.42556 | -131.39671 | 36277 ft | 414 kts | 236° |
| 2026-05-01 08:40 | 43.39392 | -131.46229 | 36275 ft | 415 kts | 236° |
| 2026-05-01 08:41 | 43.36198 | -131.52835 | 36274 ft | 415 kts | 236° |
| 2026-05-01 08:41 | 43.32994 | -131.59446 | 36272 ft | 415 kts | 236° |
| 2026-05-01 08:42 | 43.29789 | -131.66045 | 36272 ft | 416 kts | 236° |
| 2026-05-01 08:42 | 43.26577 | -131.72643 | 36276 ft | 416 kts | 236° |
| 2026-05-01 08:43 | 43.23356 | -131.79246 | 36271 ft | 416 kts | 236° |
| 2026-05-01 08:43 | 43.20128 | -131.85849 | 36272 ft | 417 kts | 236° |
| 2026-05-01 08:44 | 43.16897 | -131.92441 | 36267 ft | 417 kts | 236° |
| 2026-05-01 08:44 | 43.13660 | -131.99031 | 36269 ft | 417 kts | 236° |
| 2026-05-01 08:45 | 43.10418 | -132.05617 | 36268 ft | 417 kts | 236° |
| 2026-05-01 08:45 | 43.07195 | -132.12151 | 36268 ft | 417 kts | 236° |
| 2026-05-01 08:46 | 43.03938 | -132.18739 | 36269 ft | 417 kts | 236° |
| 2026-05-01 08:46 | 43.00679 | -132.25316 | 36266 ft | 418 kts | 236° |
| 2026-05-01 08:47 | 42.97416 | -132.31885 | 36267 ft | 418 kts | 236° |
| 2026-05-01 08:47 | 42.94145 | -132.38459 | 36267 ft | 418 kts | 236° |
| 2026-05-01 08:48 | 42.90869 | -132.45025 | 36268 ft | 419 kts | 237° |
| 2026-05-01 08:48 | 42.87589 | -132.51587 | 36269 ft | 419 kts | 237° |
| 2026-05-01 08:49 | 42.84302 | -132.58147 | 36266 ft | 419 kts | 237° |
| 2026-05-01 08:49 | 42.81007 | -132.64710 | 36268 ft | 419 kts | 237° |
| 2026-05-01 08:50 | 42.77728 | -132.71224 | 36266 ft | 420 kts | 237° |
| 2026-05-01 08:50 | 42.74424 | -132.77777 | 36266 ft | 420 kts | 237° |
| 2026-05-01 08:51 | 42.71113 | -132.84326 | 36268 ft | 420 kts | 237° |
| 2026-05-01 08:51 | 42.67795 | -132.90876 | 36266 ft | 420 kts | 237° |
| 2026-05-01 08:52 | 42.64475 | -132.97416 | 36270 ft | 420 kts | 237° |
| 2026-05-01 08:52 | 42.61152 | -133.03947 | 36273 ft | 420 kts | 237° |
| 2026-05-01 08:53 | 42.57822 | -133.10479 | 36274 ft | 420 kts | 237° |
| 2026-05-01 08:53 | 42.54517 | -133.16946 | 36272 ft | 420 kts | 237° |
| 2026-05-01 08:54 | 42.51182 | -133.23458 | 36275 ft | 420 kts | 237° |
| 2026-05-01 08:54 | 42.47848 | -133.29955 | 36280 ft | 420 kts | 237° |
| 2026-05-01 08:55 | 42.44510 | -133.36445 | 36282 ft | 420 kts | 237° |
| 2026-05-01 08:55 | 42.41164 | -133.42936 | 36287 ft | 420 kts | 237° |
| 2026-05-01 08:56 | 42.37816 | -133.49418 | 36288 ft | 420 kts | 237° |
| 2026-05-01 08:56 | 42.34463 | -133.55895 | 36295 ft | 420 kts | 237° |
| 2026-05-01 08:57 | 42.31107 | -133.62364 | 36294 ft | 421 kts | 237° |
| 2026-05-01 08:57 | 42.27736 | -133.68848 | 36303 ft | 421 kts | 237° |
| 2026-05-01 08:58 | 42.24367 | -133.75314 | 36303 ft | 421 kts | 237° |
| 2026-05-01 08:58 | 42.20992 | -133.81777 | 36309 ft | 422 kts | 237° |
| 2026-05-01 08:59 | 42.17610 | -133.88241 | 36308 ft | 422 kts | 237° |
| 2026-05-01 08:59 | 42.14218 | -133.94708 | 36315 ft | 422 kts | 237° |
| 2026-05-01 09:00 | 42.10828 | -134.01161 | 36315 ft | 422 kts | 237° |
| 2026-05-01 09:00 | 42.07453 | -134.07568 | 36315 ft | 422 kts | 237° |
| 2026-05-01 09:01 | 42.04054 | -134.14008 | 36319 ft | 422 kts | 237° |
| 2026-05-01 09:01 | 42.00648 | -134.20448 | 36324 ft | 422 kts | 237° |
| 2026-05-01 09:02 | 41.97241 | -134.26876 | 36324 ft | 422 kts | 237° |
| 2026-05-01 09:02 | 41.93833 | -134.33294 | 36328 ft | 421 kts | 237° |
| 2026-05-01 09:03 | 41.90428 | -134.39692 | 36331 ft | 421 kts | 237° |
| 2026-05-01 09:03 | 41.87020 | -134.46080 | 36326 ft | 421 kts | 237° |
| 2026-05-01 09:04 | 41.83612 | -134.52456 | 36333 ft | 420 kts | 237° |
| 2026-05-01 09:04 | 41.80205 | -134.58817 | 36339 ft | 420 kts | 237° |
| 2026-05-01 09:05 | 41.76790 | -134.65180 | 36336 ft | 420 kts | 237° |
| 2026-05-01 09:05 | 41.73376 | -134.71528 | 36342 ft | 420 kts | 237° |
| 2026-05-01 09:06 | 41.69956 | -134.77872 | 36347 ft | 420 kts | 237° |
| 2026-05-01 09:06 | 41.66528 | -134.84220 | 36351 ft | 421 kts | 237° |
| 2026-05-01 09:07 | 41.63094 | -134.90564 | 36348 ft | 421 kts | 237° |
| 2026-05-01 09:07 | 41.59656 | -134.96903 | 36355 ft | 421 kts | 237° |
| 2026-05-01 09:08 | 41.56232 | -135.03204 | 36356 ft | 422 kts | 237° |
| 2026-05-01 09:08 | 41.52781 | -135.09541 | 36362 ft | 422 kts | 237° |
| 2026-05-01 09:09 | 41.49323 | -135.15877 | 36364 ft | 423 kts | 237° |
| 2026-05-01 09:09 | 41.45854 | -135.22220 | 36346 ft | 423 kts | 237° |
| 2026-05-01 09:10 | 41.42384 | -135.28551 | 36361 ft | 423 kts | 237° |
| 2026-05-01 09:10 | 41.38913 | -135.34872 | 36367 ft | 423 kts | 237° |
| 2026-05-01 09:11 | 41.35429 | -135.41203 | 36363 ft | 423 kts | 236° |
| 2026-05-01 09:11 | 41.31942 | -135.47527 | 36367 ft | 424 kts | 236° |
| 2026-05-01 09:12 | 41.28452 | -135.53843 | 36370 ft | 424 kts | 236° |
| 2026-05-01 09:12 | 41.24960 | -135.60150 | 36370 ft | 424 kts | 236° |
| 2026-05-01 09:13 | 41.21460 | -135.66457 | 36375 ft | 424 kts | 236° |
| 2026-05-01 09:13 | 41.17952 | -135.72768 | 36375 ft | 424 kts | 236° |
| 2026-05-01 09:14 | 41.14461 | -135.79033 | 36380 ft | 425 kts | 236° |
| 2026-05-01 09:14 | 41.10945 | -135.85331 | 36377 ft | 425 kts | 236° |
| 2026-05-01 09:15 | 41.07422 | -135.91630 | 36380 ft | 425 kts | 236° |
| 2026-05-01 09:15 | 41.03893 | -135.97925 | 36385 ft | 426 kts | 236° |
| 2026-05-01 09:16 | 41.00357 | -136.04220 | 36385 ft | 426 kts | 236° |
| 2026-05-01 09:17 | 40.95040 | -136.13662 | 36389 ft | 427 kts | 236° |
| 2026-05-01 09:17 | 40.89714 | -136.23092 | 36387 ft | 427 kts | 236° |
| 2026-05-01 09:18 | 40.84362 | -136.32537 | 36397 ft | 428 kts | 236° |
| 2026-05-01 09:19 | 40.78998 | -136.41976 | 36398 ft | 429 kts | 236° |
| 2026-05-01 09:20 | 40.73620 | -136.51410 | 36401 ft | 429 kts | 236° |
| 2026-05-01 09:21 | 40.67031 | -136.62930 | 36392 ft | 430 kts | 236° |
| 2026-05-01 09:21 | 40.61002 | -136.73433 | 36401 ft | 431 kts | 236° |
| 2026-05-01 09:22 | 40.53746 | -136.86027 | 36393 ft | 432 kts | 236° |
| 2026-05-01 09:23 | 40.48901 | -136.94408 | 36404 ft | 433 kts | 236° |
| 2026-05-01 09:24 | 40.43425 | -137.03854 | 36413 ft | 434 kts | 236° |
| 2026-05-01 09:25 | 40.36087 | -137.16467 | 36413 ft | 435 kts | 236° |
| 2026-05-01 09:26 | 40.30567 | -137.25921 | 36412 ft | 436 kts | 236° |
| 2026-05-01 09:26 | 40.25025 | -137.35384 | 36413 ft | 437 kts | 236° |
| 2026-05-01 09:27 | 40.19489 | -137.44808 | 36412 ft | 438 kts | 236° |
| 2026-05-01 09:28 | 40.15763 | -137.51136 | 36419 ft | 438 kts | 236° |
| 2026-05-01 09:28 | 40.12032 | -137.57459 | 36420 ft | 439 kts | 236° |
| 2026-05-01 09:29 | 40.06429 | -137.66930 | 36419 ft | 440 kts | 236° |
| 2026-05-01 09:30 | 40.00798 | -137.76420 | 36422 ft | 441 kts | 236° |
| 2026-05-01 09:30 | 39.95152 | -137.85908 | 36425 ft | 442 kts | 236° |
| 2026-05-01 09:31 | 39.91379 | -137.92232 | 36426 ft | 443 kts | 236° |
| 2026-05-01 09:32 | 39.85725 | -138.01687 | 36425 ft | 444 kts | 236° |
| 2026-05-01 09:32 | 39.80020 | -138.11200 | 36430 ft | 445 kts | 236° |
| 2026-05-01 09:33 | 39.76199 | -138.17544 | 36428 ft | 446 kts | 236° |
| 2026-05-01 09:34 | 39.70447 | -138.27061 | 36434 ft | 447 kts | 236° |
| 2026-05-01 09:34 | 39.64674 | -138.36592 | 36434 ft | 448 kts | 236° |
| 2026-05-01 09:35 | 39.58872 | -138.46142 | 36434 ft | 449 kts | 236° |
| 2026-05-01 09:36 | 39.55001 | -138.52499 | 36442 ft | 450 kts | 236° |
| 2026-05-01 09:36 | 39.51140 | -138.58826 | 36440 ft | 450 kts | 236° |
| 2026-05-01 09:37 | 39.47248 | -138.65190 | 36435 ft | 451 kts | 236° |
| 2026-05-01 09:37 | 39.41391 | -138.74745 | 36439 ft | 452 kts | 236° |
| 2026-05-01 09:38 | 39.35511 | -138.84310 | 36441 ft | 454 kts | 236° |
| 2026-05-01 09:39 | 39.29595 | -138.93903 | 36447 ft | 456 kts | 236° |
| 2026-05-01 09:39 | 39.25636 | -139.00306 | 36449 ft | 457 kts | 237° |
| 2026-05-01 09:40 | 39.19674 | -139.09925 | 36447 ft | 459 kts | 237° |
| 2026-05-01 09:41 | 39.15678 | -139.16356 | 36440 ft | 460 kts | 237° |
| 2026-05-01 09:41 | 39.09656 | -139.26023 | 36447 ft | 462 kts | 237° |
| 2026-05-01 09:42 | 39.05647 | -139.32442 | 36450 ft | 463 kts | 237° |
| 2026-05-01 09:43 | 38.97540 | -139.45384 | 36448 ft | 466 kts | 237° |
| 2026-05-01 09:43 | 38.93442 | -139.51907 | 36454 ft | 467 kts | 237° |
| 2026-05-01 09:44 | 38.87327 | -139.61613 | 36453 ft | 469 kts | 237° |
| 2026-05-01 09:45 | 38.83219 | -139.68118 | 36450 ft | 470 kts | 237° |
| 2026-05-01 09:45 | 38.77037 | -139.77881 | 36450 ft | 471 kts | 237° |
| 2026-05-01 09:46 | 38.72898 | -139.84403 | 36453 ft | 472 kts | 237° |
| 2026-05-01 09:46 | 38.68750 | -139.90923 | 36447 ft | 473 kts | 237° |
| 2026-05-01 09:47 | 38.64591 | -139.97449 | 36456 ft | 473 kts | 237° |
| 2026-05-01 09:47 | 38.60417 | -140.03984 | 36457 ft | 474 kts | 237° |
| 2026-05-01 09:48 | 38.56263 | -140.10476 | 36454 ft | 475 kts | 237° |
| 2026-05-01 09:48 | 38.52068 | -140.17019 | 36452 ft | 476 kts | 237° |
| 2026-05-01 09:49 | 38.47835 | -140.23607 | 36456 ft | 477 kts | 237° |
| 2026-05-01 09:49 | 38.43642 | -140.30118 | 36452 ft | 478 kts | 237° |
| 2026-05-01 09:50 | 38.39413 | -140.36673 | 36454 ft | 479 kts | 237° |
| 2026-05-01 09:50 | 38.35176 | -140.43227 | 36451 ft | 480 kts | 237° |
| 2026-05-01 09:51 | 38.30922 | -140.49794 | 36456 ft | 481 kts | 237° |
| 2026-05-01 09:51 | 38.26654 | -140.56370 | 36459 ft | 482 kts | 237° |
| 2026-05-01 09:52 | 38.22371 | -140.62955 | 36461 ft | 483 kts | 237° |
| 2026-05-01 09:52 | 38.18078 | -140.69541 | 36457 ft | 484 kts | 237° |
| 2026-05-01 09:53 | 38.13778 | -140.76126 | 36460 ft | 485 kts | 237° |
| 2026-05-01 09:53 | 38.09465 | -140.82715 | 36458 ft | 486 kts | 237° |
| 2026-05-01 09:54 | 38.05140 | -140.89311 | 36462 ft | 486 kts | 237° |
| 2026-05-01 09:54 | 38.00813 | -140.95896 | 36460 ft | 487 kts | 237° |
| 2026-05-01 09:55 | 37.96467 | -141.02497 | 36461 ft | 487 kts | 237° |
| 2026-05-01 09:55 | 37.92146 | -141.09046 | 36462 ft | 488 kts | 237° |
| 2026-05-01 09:56 | 37.87793 | -141.15630 | 36460 ft | 488 kts | 237° |
| 2026-05-01 09:56 | 37.83429 | -141.22218 | 36459 ft | 488 kts | 237° |
| 2026-05-01 09:57 | 37.79068 | -141.28788 | 36461 ft | 488 kts | 237° |
| 2026-05-01 09:57 | 37.74692 | -141.35367 | 36460 ft | 488 kts | 237° |
| 2026-05-01 09:58 | 37.70319 | -141.41928 | 36461 ft | 488 kts | 237° |
| 2026-05-01 09:58 | 37.65941 | -141.48485 | 36456 ft | 488 kts | 237° |
| 2026-05-01 09:59 | 37.61558 | -141.55034 | 36461 ft | 488 kts | 237° |
| 2026-05-01 09:59 | 37.57170 | -141.61579 | 36460 ft | 489 kts | 237° |
| 2026-05-01 10:00 | 37.52780 | -141.68114 | 36458 ft | 489 kts | 236° |
| 2026-05-01 10:00 | 37.48381 | -141.74649 | 36453 ft | 489 kts | 236° |
| 2026-05-01 10:01 | 37.43982 | -141.81170 | 36469 ft | 489 kts | 236° |
| 2026-05-01 10:01 | 37.39577 | -141.87688 | 36458 ft | 489 kts | 236° |
| 2026-05-01 10:02 | 37.35155 | -141.94217 | 36464 ft | 489 kts | 236° |
| 2026-05-01 10:02 | 37.30739 | -142.00726 | 36463 ft | 490 kts | 236° |
| 2026-05-01 10:03 | 37.26344 | -142.07190 | 36464 ft | 490 kts | 236° |
| 2026-05-01 10:03 | 37.21914 | -142.13687 | 36427 ft | 489 kts | 235° |
| 2026-05-01 10:04 | 37.17482 | -142.20177 | 36456 ft | 491 kts | 236° |
| 2026-05-01 10:04 | 37.13028 | -142.26698 | 36471 ft | 493 kts | 236° |
| 2026-05-01 10:05 | 37.08556 | -142.33227 | 36464 ft | 495 kts | 236° |
| 2026-05-01 10:05 | 37.04068 | -142.39762 | 36470 ft | 494 kts | 235° |
| 2026-05-01 10:06 | 36.99589 | -142.46270 | 36456 ft | 493 kts | 235° |
| 2026-05-01 10:06 | 36.95122 | -142.52748 | 36462 ft | 491 kts | 235° |
| 2026-05-01 10:07 | 36.90671 | -142.59191 | 36454 ft | 488 kts | 235° |
| 2026-05-01 10:07 | 36.86238 | -142.65596 | 36460 ft | 486 kts | 235° |
| 2026-05-01 10:08 | 36.79623 | -142.75132 | 36451 ft | 483 kts | 235° |
| 2026-05-01 10:09 | 36.75225 | -142.81456 | 36462 ft | 481 kts | 234° |
| 2026-05-01 10:09 | 36.70839 | -142.87754 | 36461 ft | 480 kts | 234° |
| 2026-05-01 10:10 | 36.66453 | -142.94038 | 36471 ft | 480 kts | 234° |
| 2026-05-01 10:10 | 36.59880 | -143.03433 | 36475 ft | 480 kts | 234° |
| 2026-05-01 10:11 | 36.56236 | -143.08629 | 36461 ft | 480 kts | 234° |
| 2026-05-01 10:11 | 36.51841 | -143.14886 | 36468 ft | 480 kts | 234° |
| 2026-05-01 10:12 | 36.47441 | -143.21138 | 36466 ft | 480 kts | 234° |
| 2026-05-01 10:13 | 36.40842 | -143.30493 | 36463 ft | 480 kts | 233° |
| 2026-05-01 10:13 | 36.36441 | -143.36718 | 36461 ft | 479 kts | 233° |
| 2026-05-01 10:14 | 36.29842 | -143.46029 | 36467 ft | 478 kts | 233° |
| 2026-05-01 10:14 | 36.25446 | -143.52217 | 36467 ft | 478 kts | 233° |
| 2026-05-01 10:15 | 36.21058 | -143.58384 | 36464 ft | 477 kts | 233° |
| 2026-05-01 10:15 | 36.16701 | -143.64495 | 36468 ft | 476 kts | 233° |
| 2026-05-01 10:16 | 36.12316 | -143.70634 | 36463 ft | 475 kts | 233° |
| 2026-05-01 10:17 | 36.05766 | -143.79782 | 36465 ft | 473 kts | 232° |
| 2026-05-01 10:17 | 35.99228 | -143.88891 | 36471 ft | 471 kts | 232° |
| 2026-05-01 10:18 | 35.92702 | -143.97958 | 36463 ft | 470 kts | 232° |
| 2026-05-01 10:19 | 35.88383 | -144.03944 | 36466 ft | 469 kts | 232° |
| 2026-05-01 10:19 | 35.84045 | -144.09947 | 36464 ft | 468 kts | 232° |
| 2026-05-01 10:20 | 35.77545 | -144.18921 | 36460 ft | 467 kts | 232° |
| 2026-05-01 10:20 | 35.73213 | -144.24889 | 36467 ft | 466 kts | 232° |
| 2026-05-01 10:21 | 35.66728 | -144.33802 | 36463 ft | 466 kts | 231° |
| 2026-05-01 10:22 | 35.60246 | -144.42690 | 36458 ft | 465 kts | 231° |
| 2026-05-01 10:23 | 35.53777 | -144.51535 | 36463 ft | 464 kts | 231° |
| 2026-05-01 10:23 | 35.47315 | -144.60349 | 36466 ft | 462 kts | 231° |
| 2026-05-01 10:24 | 35.38709 | -144.72050 | 36468 ft | 461 kts | 231° |
| 2026-05-01 10:25 | 35.30118 | -144.83691 | 36467 ft | 459 kts | 231° |
| 2026-05-01 10:26 | 35.25831 | -144.89485 | 36460 ft | 459 kts | 231° |
| 2026-05-01 10:27 | 35.17265 | -145.01035 | 36459 ft | 457 kts | 230° |
| 2026-05-01 10:28 | 35.10857 | -145.09649 | 36462 ft | 456 kts | 230° |
| 2026-05-01 10:28 | 35.04460 | -145.18229 | 36465 ft | 455 kts | 230° |
| 2026-05-01 10:29 | 34.98100 | -145.26735 | 36460 ft | 454 kts | 230° |
| 2026-05-01 10:30 | 34.89586 | -145.38077 | 36458 ft | 453 kts | 230° |
| 2026-05-01 10:31 | 34.81087 | -145.49370 | 36456 ft | 451 kts | 230° |
| 2026-05-01 10:32 | 34.74727 | -145.57797 | 36456 ft | 451 kts | 230° |
| 2026-05-01 10:33 | 34.66248 | -145.69000 | 36456 ft | 449 kts | 229° |
| 2026-05-01 10:34 | 34.59922 | -145.77334 | 36459 ft | 449 kts | 229° |
| 2026-05-01 10:34 | 34.55687 | -145.82903 | 36455 ft | 448 kts | 229° |
| 2026-05-01 10:35 | 34.49349 | -145.91220 | 36451 ft | 447 kts | 229° |
| 2026-05-01 10:35 | 34.45119 | -145.96759 | 36463 ft | 447 kts | 229° |
| 2026-05-01 10:36 | 34.38815 | -146.04998 | 36450 ft | 446 kts | 229° |
| 2026-05-01 10:37 | 34.34566 | -146.10540 | 36450 ft | 445 kts | 229° |
| 2026-05-01 10:37 | 34.28275 | -146.18729 | 36451 ft | 445 kts | 229° |
| 2026-05-01 10:38 | 34.24060 | -146.24205 | 36444 ft | 444 kts | 229° |
| 2026-05-01 10:38 | 34.19852 | -146.29665 | 36452 ft | 443 kts | 229° |
| 2026-05-01 10:39 | 34.17746 | -146.32393 | 36278 ft | 447 kts | 230° |
| 2026-05-01 10:39 | 34.15613 | -146.35158 | 36369 ft | 452 kts | 230° |
| 2026-05-01 10:39 | 34.11272 | -146.40776 | 36456 ft | 463 kts | 230° |
| 2026-05-01 10:40 | 34.06814 | -146.46533 | 36464 ft | 476 kts | 230° |
| 2026-05-01 10:40 | 34.02228 | -146.52443 | 36461 ft | 488 kts | 230° |
| 2026-05-01 10:41 | 33.97536 | -146.58479 | 36457 ft | 499 kts | 229° |
| 2026-05-01 10:42 | 33.90403 | -146.67632 | 36437 ft | 503 kts | 229° |
| 2026-05-01 10:42 | 33.85607 | -146.73772 | 36439 ft | 504 kts | 229° |
| 2026-05-01 10:43 | 33.80802 | -146.79915 | 36433 ft | 503 kts | 229° |
| 2026-05-01 10:43 | 33.76013 | -146.86027 | 36430 ft | 501 kts | 229° |
| 2026-05-01 10:44 | 33.71240 | -146.92108 | 36428 ft | 499 kts | 229° |
| 2026-05-01 10:44 | 33.66485 | -146.98157 | 36430 ft | 497 kts | 229° |
| 2026-05-01 10:45 | 33.61737 | -147.04187 | 36430 ft | 496 kts | 229° |
| 2026-05-01 10:45 | 33.56997 | -147.10196 | 36431 ft | 495 kts | 229° |
| 2026-05-01 10:46 | 33.52260 | -147.16190 | 36430 ft | 495 kts | 229° |
| 2026-05-01 10:46 | 33.47521 | -147.22177 | 36428 ft | 495 kts | 229° |
| 2026-05-01 10:47 | 33.42774 | -147.28165 | 36426 ft | 496 kts | 229° |
| 2026-05-01 10:47 | 33.38015 | -147.34156 | 36425 ft | 497 kts | 229° |
| 2026-05-01 10:48 | 33.33272 | -147.40118 | 36426 ft | 498 kts | 228° |
| 2026-05-01 10:48 | 33.28495 | -147.46112 | 36421 ft | 499 kts | 228° |
| 2026-05-01 10:49 | 33.23696 | -147.52124 | 36421 ft | 500 kts | 228° |
| 2026-05-01 10:49 | 33.18891 | -147.58132 | 36419 ft | 501 kts | 228° |
| 2026-05-01 10:50 | 33.14072 | -147.64148 | 36417 ft | 501 kts | 228° |
| 2026-05-01 10:50 | 33.09248 | -147.70161 | 36418 ft | 502 kts | 228° |
| 2026-05-01 10:51 | 33.04416 | -147.76172 | 36418 ft | 502 kts | 228° |
| 2026-05-01 10:51 | 32.99578 | -147.82182 | 36412 ft | 502 kts | 228° |
| 2026-05-01 10:52 | 32.94742 | -147.88178 | 36416 ft | 502 kts | 228° |
| 2026-05-01 10:52 | 32.89898 | -147.94173 | 36410 ft | 502 kts | 227° |
| 2026-05-01 10:53 | 32.85060 | -148.00153 | 36412 ft | 502 kts | 227° |
| 2026-05-01 10:53 | 32.80253 | -148.06083 | 36411 ft | 501 kts | 227° |
| 2026-05-01 10:54 | 32.75411 | -148.12047 | 36407 ft | 501 kts | 227° |
| 2026-05-01 10:54 | 32.70563 | -148.18008 | 36406 ft | 501 kts | 227° |
| 2026-05-01 10:55 | 32.65718 | -148.23956 | 36409 ft | 501 kts | 227° |
| 2026-05-01 10:55 | 32.60866 | -148.29902 | 36408 ft | 501 kts | 227° |
| 2026-05-01 10:56 | 32.56013 | -148.35841 | 36402 ft | 501 kts | 227° |
| 2026-05-01 10:56 | 32.51151 | -148.41779 | 36397 ft | 502 kts | 227° |
| 2026-05-01 10:57 | 32.46292 | -148.47704 | 36404 ft | 502 kts | 227° |
| 2026-05-01 10:57 | 32.41452 | -148.53597 | 36402 ft | 502 kts | 227° |
| 2026-05-01 10:58 | 32.36549 | -148.59557 | 36398 ft | 502 kts | 227° |
| 2026-05-01 10:58 | 32.31699 | -148.65442 | 36400 ft | 503 kts | 227° |
| 2026-05-01 10:59 | 32.26819 | -148.71353 | 36400 ft | 503 kts | 226° |
| 2026-05-01 10:59 | 32.21925 | -148.77272 | 36397 ft | 503 kts | 226° |
| 2026-05-01 11:00 | 32.17826 | -148.82223 | 36394 ft | 503 kts | 226° |
| 2026-05-01 11:00 | 32.12133 | -148.89087 | 36393 ft | 504 kts | 226° |
| 2026-05-01 11:01 | 32.08025 | -148.94031 | 36391 ft | 504 kts | 226° |
| 2026-05-01 11:01 | 32.03150 | -148.99891 | 36391 ft | 504 kts | 226° |
| 2026-05-01 11:02 | 31.98239 | -149.05784 | 36389 ft | 504 kts | 226° |
| 2026-05-01 11:02 | 31.93321 | -149.11676 | 36388 ft | 504 kts | 226° |
| 2026-05-01 11:03 | 31.88405 | -149.17555 | 36387 ft | 504 kts | 226° |
| 2026-05-01 11:03 | 31.83481 | -149.23435 | 36388 ft | 504 kts | 226° |
| 2026-05-01 11:04 | 31.78551 | -149.29313 | 36386 ft | 504 kts | 226° |
| 2026-05-01 11:04 | 31.73628 | -149.35174 | 36392 ft | 504 kts | 226° |
| 2026-05-01 11:05 | 31.68685 | -149.41048 | 36385 ft | 505 kts | 226° |
| 2026-05-01 11:05 | 31.63752 | -149.46900 | 36384 ft | 505 kts | 226° |
| 2026-05-01 11:06 | 31.58809 | -149.52756 | 36380 ft | 505 kts | 226° |
| 2026-05-01 11:06 | 31.53894 | -149.58569 | 36382 ft | 504 kts | 226° |
| 2026-05-01 11:07 | 31.46482 | -149.67318 | 36381 ft | 504 kts | 226° |
| 2026-05-01 11:07 | 31.41536 | -149.73144 | 36381 ft | 504 kts | 226° |
| 2026-05-01 11:08 | 31.36587 | -149.78965 | 36373 ft | 504 kts | 226° |
| 2026-05-01 11:09 | 31.29156 | -149.87687 | 36374 ft | 504 kts | 226° |
| 2026-05-01 11:09 | 31.24198 | -149.93495 | 36373 ft | 504 kts | 225° |
| 2026-05-01 11:10 | 31.16763 | -150.02188 | 36371 ft | 504 kts | 225° |
| 2026-05-01 11:10 | 31.11802 | -150.07977 | 36370 ft | 504 kts | 225° |
| 2026-05-01 11:11 | 31.06834 | -150.13765 | 36372 ft | 504 kts | 225° |
| 2026-05-01 11:11 | 31.01868 | -150.19541 | 36368 ft | 504 kts | 225° |
| 2026-05-01 11:12 | 30.96903 | -150.25309 | 36366 ft | 504 kts | 225° |
| 2026-05-01 11:12 | 30.91925 | -150.31081 | 36361 ft | 505 kts | 225° |
| 2026-05-01 11:13 | 30.86948 | -150.36844 | 36360 ft | 505 kts | 225° |
| 2026-05-01 11:13 | 30.81967 | -150.42602 | 36363 ft | 505 kts | 225° |
| 2026-05-01 11:14 | 30.76989 | -150.48348 | 36361 ft | 505 kts | 225° |
| 2026-05-01 11:14 | 30.72003 | -150.54093 | 36357 ft | 505 kts | 225° |
| 2026-05-01 11:15 | 30.67042 | -150.59803 | 36356 ft | 505 kts | 225° |
| 2026-05-01 11:15 | 30.62050 | -150.65539 | 36359 ft | 505 kts | 225° |
| 2026-05-01 11:16 | 30.57060 | -150.71263 | 36358 ft | 505 kts | 225° |
| 2026-05-01 11:16 | 30.52068 | -150.76981 | 36361 ft | 504 kts | 225° |
| 2026-05-01 11:17 | 30.47068 | -150.82699 | 36354 ft | 504 kts | 225° |
| 2026-05-01 11:17 | 30.42074 | -150.88403 | 36355 ft | 504 kts | 225° |
| 2026-05-01 11:18 | 30.37073 | -150.94106 | 36350 ft | 504 kts | 225° |
| 2026-05-01 11:18 | 30.32072 | -150.99799 | 36355 ft | 504 kts | 225° |
| 2026-05-01 11:19 | 30.27069 | -151.05489 | 36348 ft | 504 kts | 225° |
| 2026-05-01 11:19 | 30.22071 | -151.11163 | 36356 ft | 504 kts | 225° |
| 2026-05-01 11:20 | 30.17060 | -151.16832 | 36346 ft | 504 kts | 225° |
| 2026-05-01 11:20 | 30.12048 | -151.22485 | 36345 ft | 503 kts | 225° |
| 2026-05-01 11:21 | 30.07033 | -151.28135 | 36346 ft | 503 kts | 225° |
| 2026-05-01 11:21 | 30.02051 | -151.33741 | 36344 ft | 503 kts | 224° |
| 2026-05-01 11:22 | 29.97006 | -151.39412 | 36344 ft | 503 kts | 224° |
| 2026-05-01 11:22 | 29.92032 | -151.44995 | 36346 ft | 502 kts | 224° |
| 2026-05-01 11:23 | 29.87026 | -151.50605 | 36343 ft | 502 kts | 224° |
| 2026-05-01 11:23 | 29.82015 | -151.56213 | 36337 ft | 502 kts | 224° |
| 2026-05-01 11:24 | 29.77001 | -151.61815 | 36341 ft | 502 kts | 224° |
| 2026-05-01 11:25 | 29.69481 | -151.70202 | 36340 ft | 501 kts | 224° |
| 2026-05-01 11:25 | 29.61965 | -151.78565 | 36337 ft | 501 kts | 224° |
| 2026-05-01 11:26 | 29.54451 | -151.86910 | 36335 ft | 501 kts | 224° |
| 2026-05-01 11:27 | 29.49442 | -151.92462 | 36333 ft | 500 kts | 224° |
| 2026-05-01 11:27 | 29.44432 | -151.98007 | 36332 ft | 500 kts | 224° |
| 2026-05-01 11:28 | 29.39418 | -152.03548 | 36327 ft | 500 kts | 224° |
| 2026-05-01 11:28 | 29.34412 | -152.09073 | 36329 ft | 499 kts | 224° |
| 2026-05-01 11:29 | 29.26935 | -152.17310 | 36330 ft | 499 kts | 224° |
| 2026-05-01 11:30 | 29.19432 | -152.25558 | 36326 ft | 499 kts | 224° |
| 2026-05-01 11:30 | 29.14421 | -152.31057 | 36321 ft | 498 kts | 224° |
| 2026-05-01 11:31 | 29.09411 | -152.36546 | 36321 ft | 498 kts | 224° |
| 2026-05-01 11:31 | 29.04406 | -152.42023 | 36320 ft | 498 kts | 224° |
| 2026-05-01 11:32 | 28.99400 | -152.47492 | 36317 ft | 498 kts | 224° |
| 2026-05-01 11:32 | 28.94401 | -152.52947 | 36317 ft | 497 kts | 224° |
| 2026-05-01 11:33 | 28.89394 | -152.58402 | 36311 ft | 497 kts | 224° |
| 2026-05-01 11:33 | 28.84389 | -152.63848 | 36313 ft | 497 kts | 224° |
| 2026-05-01 11:34 | 28.79387 | -152.69284 | 36308 ft | 497 kts | 224° |
| 2026-05-01 11:34 | 28.74382 | -152.74714 | 36310 ft | 496 kts | 224° |
| 2026-05-01 11:35 | 28.69381 | -152.80133 | 36307 ft | 496 kts | 224° |
| 2026-05-01 11:35 | 28.64381 | -152.85542 | 36306 ft | 496 kts | 224° |
| 2026-05-01 11:36 | 28.59373 | -152.90954 | 36304 ft | 495 kts | 224° |
| 2026-05-01 11:36 | 28.54405 | -152.96315 | 36301 ft | 495 kts | 224° |
| 2026-05-01 11:37 | 28.49406 | -153.01702 | 36298 ft | 495 kts | 224° |
| 2026-05-01 11:37 | 28.44409 | -153.07079 | 36299 ft | 494 kts | 224° |
| 2026-05-01 11:38 | 28.39410 | -153.12450 | 36299 ft | 494 kts | 224° |
| 2026-05-01 11:38 | 28.34414 | -153.17812 | 36299 ft | 494 kts | 224° |
| 2026-05-01 11:39 | 28.29422 | -153.23162 | 36297 ft | 494 kts | 224° |
| 2026-05-01 11:39 | 28.24425 | -153.28510 | 36293 ft | 493 kts | 224° |
| 2026-05-01 11:40 | 28.19432 | -153.33847 | 36292 ft | 493 kts | 224° |
| 2026-05-01 11:40 | 28.14434 | -153.39181 | 36291 ft | 493 kts | 224° |
| 2026-05-01 11:41 | 28.09438 | -153.44506 | 36290 ft | 493 kts | 224° |
| 2026-05-01 11:41 | 28.04448 | -153.49818 | 36291 ft | 493 kts | 224° |
| 2026-05-01 11:42 | 27.99455 | -153.55126 | 36289 ft | 492 kts | 224° |
| 2026-05-01 11:42 | 27.94491 | -153.60397 | 36286 ft | 492 kts | 224° |
| 2026-05-01 11:43 | 27.89498 | -153.65690 | 36286 ft | 492 kts | 224° |
| 2026-05-01 11:43 | 27.84502 | -153.70980 | 36282 ft | 492 kts | 224° |
| 2026-05-01 11:44 | 27.77011 | -153.78898 | 36280 ft | 491 kts | 224° |
| 2026-05-01 11:44 | 27.72025 | -153.84161 | 36280 ft | 491 kts | 224° |
| 2026-05-01 11:45 | 27.67028 | -153.89427 | 36281 ft | 491 kts | 224° |
| 2026-05-01 11:45 | 27.62035 | -153.94683 | 36274 ft | 491 kts | 224° |
| 2026-05-01 11:46 | 27.57044 | -153.99930 | 36279 ft | 490 kts | 224° |
| 2026-05-01 11:46 | 27.52893 | -154.04288 | 36273 ft | 490 kts | 224° |
| 2026-05-01 11:47 | 27.47905 | -154.09519 | 36270 ft | 490 kts | 224° |
| 2026-05-01 11:47 | 27.42920 | -154.14740 | 36263 ft | 490 kts | 224° |
| 2026-05-01 11:48 | 27.37926 | -154.19964 | 36267 ft | 489 kts | 224° |
| 2026-05-01 11:48 | 27.32939 | -154.25173 | 36265 ft | 489 kts | 224° |
| 2026-05-01 11:49 | 27.27949 | -154.30379 | 36266 ft | 489 kts | 224° |
| 2026-05-01 11:49 | 27.22964 | -154.35574 | 36275 ft | 488 kts | 224° |
| 2026-05-01 11:50 | 27.18010 | -154.40729 | 36255 ft | 488 kts | 224° |
| 2026-05-01 11:50 | 27.13032 | -154.45902 | 36259 ft | 488 kts | 224° |
| 2026-05-01 11:51 | 27.08048 | -154.51076 | 36262 ft | 487 kts | 224° |
| 2026-05-01 11:51 | 27.03070 | -154.56237 | 36262 ft | 487 kts | 224° |
| 2026-05-01 11:52 | 26.98090 | -154.61393 | 36257 ft | 487 kts | 224° |
| 2026-05-01 11:52 | 26.93116 | -154.66536 | 36254 ft | 487 kts | 224° |
| 2026-05-01 11:53 | 26.88140 | -154.71675 | 36251 ft | 486 kts | 224° |
| 2026-05-01 11:53 | 26.83162 | -154.76810 | 36256 ft | 486 kts | 224° |
| 2026-05-01 11:54 | 26.78187 | -154.81934 | 36253 ft | 486 kts | 224° |
| 2026-05-01 11:54 | 26.73213 | -154.87053 | 36250 ft | 486 kts | 224° |
| 2026-05-01 11:55 | 26.68240 | -154.92163 | 36254 ft | 485 kts | 224° |
| 2026-05-01 11:55 | 26.63268 | -154.97265 | 36247 ft | 485 kts | 224° |
| 2026-05-01 11:56 | 26.58294 | -155.02365 | 36247 ft | 485 kts | 224° |
| 2026-05-01 11:56 | 26.53314 | -155.07463 | 36251 ft | 485 kts | 224° |
| 2026-05-01 11:57 | 26.48348 | -155.12541 | 36244 ft | 484 kts | 224° |
| 2026-05-01 11:57 | 26.43371 | -155.17624 | 36242 ft | 484 kts | 224° |
| 2026-05-01 11:58 | 26.38435 | -155.22659 | 36239 ft | 484 kts | 224° |
| 2026-05-01 11:59 | 26.30980 | -155.30252 | 36240 ft | 484 kts | 224° |
| 2026-05-01 11:59 | 26.26014 | -155.35303 | 36238 ft | 483 kts | 224° |
| 2026-05-01 12:00 | 26.18563 | -155.42868 | 36236 ft | 483 kts | 224° |
| 2026-05-01 12:01 | 26.11108 | -155.50425 | 36235 ft | 483 kts | 224° |
| 2026-05-01 12:01 | 26.06145 | -155.55448 | 36237 ft | 483 kts | 224° |
| 2026-05-01 12:02 | 26.01176 | -155.60471 | 36233 ft | 482 kts | 224° |
| 2026-05-01 12:02 | 25.96208 | -155.65487 | 36230 ft | 482 kts | 224° |
| 2026-05-01 12:03 | 25.91245 | -155.70491 | 36229 ft | 482 kts | 224° |
| 2026-05-01 12:03 | 25.86276 | -155.75497 | 36232 ft | 482 kts | 224° |
| 2026-05-01 12:04 | 25.81309 | -155.80494 | 36226 ft | 482 kts | 224° |
| 2026-05-01 12:04 | 25.76339 | -155.85489 | 36226 ft | 482 kts | 224° |
| 2026-05-01 12:05 | 25.71370 | -155.90476 | 36224 ft | 482 kts | 224° |
| 2026-05-01 12:05 | 25.63922 | -155.97940 | 36222 ft | 481 kts | 224° |
| 2026-05-01 12:06 | 25.58982 | -156.02884 | 36222 ft | 481 kts | 224° |
| 2026-05-01 12:06 | 25.54015 | -156.07849 | 36220 ft | 481 kts | 224° |
| 2026-05-01 12:07 | 25.49048 | -156.12809 | 36217 ft | 480 kts | 224° |
| 2026-05-01 12:07 | 25.44087 | -156.17756 | 36210 ft | 480 kts | 224° |
| 2026-05-01 12:08 | 25.39127 | -156.22697 | 36211 ft | 480 kts | 224° |
| 2026-05-01 12:08 | 25.34166 | -156.27634 | 36211 ft | 480 kts | 224° |
| 2026-05-01 12:09 | 25.29206 | -156.32564 | 36209 ft | 479 kts | 223° |
| 2026-05-01 12:09 | 25.24244 | -156.37492 | 36212 ft | 479 kts | 223° |
| 2026-05-01 12:10 | 25.16804 | -156.44864 | 36208 ft | 479 kts | 223° |
| 2026-05-01 12:11 | 25.09359 | -156.52213 | 36210 ft | 479 kts | 223° |
| 2026-05-01 12:11 | 25.04395 | -156.57108 | 36209 ft | 478 kts | 223° |
| 2026-05-01 12:12 | 24.99433 | -156.61997 | 36208 ft | 478 kts | 223° |
| 2026-05-01 12:12 | 24.94471 | -156.66883 | 36206 ft | 478 kts | 223° |
| 2026-05-01 12:13 | 24.89507 | -156.71762 | 36200 ft | 478 kts | 223° |
| 2026-05-01 12:13 | 24.84581 | -156.76601 | 36199 ft | 478 kts | 223° |
| 2026-05-01 12:14 | 24.79618 | -156.81470 | 36198 ft | 478 kts | 223° |
| 2026-05-01 12:14 | 24.74659 | -156.86329 | 36193 ft | 477 kts | 223° |
| 2026-05-01 12:15 | 24.69701 | -156.91183 | 36198 ft | 477 kts | 223° |
| 2026-05-01 12:15 | 24.64741 | -156.96032 | 36191 ft | 477 kts | 223° |
| 2026-05-01 12:16 | 24.59779 | -157.00878 | 36194 ft | 477 kts | 223° |
| 2026-05-01 12:16 | 24.54826 | -157.05711 | 36191 ft | 476 kts | 223° |
| 2026-05-01 12:17 | 24.49868 | -157.10543 | 36190 ft | 476 kts | 223° |
| 2026-05-01 12:17 | 24.44910 | -157.15370 | 36190 ft | 476 kts | 223° |
| 2026-05-01 12:18 | 24.39953 | -157.20190 | 36185 ft | 475 kts | 223° |
| 2026-05-01 12:18 | 24.35006 | -157.24998 | 36184 ft | 475 kts | 223° |
| 2026-05-01 12:19 | 24.30060 | -157.29800 | 36185 ft | 475 kts | 223° |
| 2026-05-01 12:19 | 24.25124 | -157.34593 | 36181 ft | 474 kts | 223° |
| 2026-05-01 12:20 | 24.20188 | -157.39380 | 36183 ft | 474 kts | 223° |
| 2026-05-01 12:20 | 24.15256 | -157.44161 | 36180 ft | 473 kts | 223° |
| 2026-05-01 12:21 | 24.10359 | -157.48904 | 36181 ft | 473 kts | 223° |
| 2026-05-01 12:21 | 24.05436 | -157.53668 | 36176 ft | 472 kts | 223° |
| 2026-05-01 12:22 | 24.00506 | -157.58428 | 36176 ft | 472 kts | 223° |
| 2026-05-01 12:22 | 23.95578 | -157.63186 | 36175 ft | 472 kts | 223° |
| 2026-05-01 12:23 | 23.90659 | -157.67926 | 36172 ft | 471 kts | 223° |
| 2026-05-01 12:23 | 23.85745 | -157.72658 | 36167 ft | 471 kts | 223° |
| 2026-05-01 12:24 | 23.80775 | -157.77329 | 36152 ft | 473 kts | 214° |
| 2026-05-01 12:24 | 23.77799 | -157.78808 | 36169 ft | 473 kts | 193° |
| 2026-05-01 12:24 | 23.74527 | -157.79107 | 36162 ft | 472 kts | 173° |
| 2026-05-01 12:25 | 23.64689 | -157.78844 | 36164 ft | 474 kts | 183° |
| 2026-05-01 12:26 | 23.58107 | -157.79408 | 36158 ft | 475 kts | 185° |
| 2026-05-01 12:26 | 23.48221 | -157.80277 | 36160 ft | 476 kts | 184° |
| 2026-05-01 12:27 | 23.38306 | -157.81040 | 36158 ft | 477 kts | 184° |
| 2026-05-01 12:28 | 23.28372 | -157.81782 | 36152 ft | 477 kts | 184° |
| 2026-05-01 12:29 | 23.20672 | -157.82359 | 36148 ft | 477 kts | 184° |
| 2026-05-01 12:29 | 23.17264 | -157.82615 | 36147 ft | 477 kts | 184° |
| 2026-05-01 12:30 | 23.07332 | -157.83387 | 36148 ft | 477 kts | 185° |
| 2026-05-01 12:31 | 23.00711 | -157.83913 | 36132 ft | 477 kts | 185° |
| 2026-05-01 12:31 | 22.94102 | -157.84463 | 36137 ft | 475 kts | 186° |
| 2026-05-01 12:32 | 22.87512 | -157.84971 | 36133 ft | 473 kts | 186° |
| 2026-05-01 12:32 | 22.81039 | -157.85461 | 35119 ft | 466 kts | 186° |
| 2026-05-01 12:32 | 22.78884 | -157.85623 | 34565 ft | 469 kts | 186° |
| 2026-05-01 12:33 | 22.75598 | -157.85867 | 33602 ft | 477 kts | 185° |
| 2026-05-01 12:33 | 22.72273 | -157.86110 | 32585 ft | 483 kts | 185° |
| 2026-05-01 12:33 | 22.68900 | -157.86354 | 31638 ft | 487 kts | 185° |
| 2026-05-01 12:33 | 22.65508 | -157.86598 | 30743 ft | 490 kts | 185° |
| 2026-05-01 12:34 | 22.62101 | -157.86851 | 29796 ft | 492 kts | 185° |
| 2026-05-01 12:34 | 22.58683 | -157.87110 | 28728 ft | 494 kts | 186° |
| 2026-05-01 12:34 | 22.55245 | -157.87395 | 27603 ft | 496 kts | 185° |
| 2026-05-01 12:34 | 22.51797 | -157.87667 | 26451 ft | 499 kts | 185° |
| 2026-05-01 12:35 | 22.48575 | -157.87902 | 25422 ft | 502 kts | 184° |
| 2026-05-01 12:35 | 22.45083 | -157.88141 | 24594 ft | 498 kts | 184° |
| 2026-05-01 12:35 | 22.41651 | -157.88378 | 23902 ft | 491 kts | 184° |
| 2026-05-01 12:35 | 22.38261 | -157.88620 | 23114 ft | 485 kts | 184° |
| 2026-05-01 12:36 | 22.34921 | -157.88865 | 22359 ft | 477 kts | 184° |
| 2026-05-01 12:36 | 22.31638 | -157.89109 | 21643 ft | 470 kts | 184° |
| 2026-05-01 12:36 | 22.28401 | -157.89351 | 20848 ft | 464 kts | 184° |
| 2026-05-01 12:36 | 22.25176 | -157.89588 | 19943 ft | 463 kts | 184° |
| 2026-05-01 12:37 | 22.21970 | -157.89817 | 19143 ft | 459 kts | 184° |
| 2026-05-01 12:37 | 22.18801 | -157.90040 | 18335 ft | 455 kts | 184° |
| 2026-05-01 12:37 | 22.15657 | -157.90263 | 17497 ft | 450 kts | 184° |
| 2026-05-01 12:37 | 22.12559 | -157.90484 | 16750 ft | 443 kts | 184° |
| 2026-05-01 12:38 | 22.09538 | -157.90704 | 15956 ft | 438 kts | 184° |
| 2026-05-01 12:38 | 22.06521 | -157.90923 | 15288 ft | 430 kts | 184° |
| 2026-05-01 12:38 | 22.03554 | -157.91144 | 14495 ft | 427 kts | 184° |
| 2026-05-01 12:38 | 22.00601 | -157.91359 | 13771 ft | 422 kts | 184° |
| 2026-05-01 12:39 | 21.97696 | -157.91571 | 13078 ft | 415 kts | 184° |
| 2026-05-01 12:39 | 21.94847 | -157.91780 | 12408 ft | 407 kts | 184° |
| 2026-05-01 12:39 | 21.92033 | -157.91988 | 11641 ft | 403 kts | 184° |
| 2026-05-01 12:39 | 21.89262 | -157.92190 | 11049 ft | 395 kts | 183° |
| 2026-05-01 12:40 | 21.86536 | -157.92391 | 10375 ft | 390 kts | 183° |
| 2026-05-01 12:40 | 21.83843 | -157.92588 | 9651 ft | 386 kts | 182° |
| 2026-05-01 12:40 | 21.81188 | -157.92782 | 9135 ft | 379 kts | 181° |
| 2026-05-01 12:40 | 21.78535 | -157.92978 | 8984 ft | 385 kts | 181° |
| 2026-05-01 12:41 | 21.75874 | -157.93153 | 8864 ft | 384 kts | 181° |
| 2026-05-01 12:41 | 21.73208 | -157.93329 | 8815 ft | 382 kts | 181° |
| 2026-05-01 12:41 | 21.70569 | -157.93513 | 8814 ft | 380 kts | 181° |
| 2026-05-01 12:41 | 21.67929 | -157.93703 | 8818 ft | 381 kts | 181° |
| 2026-05-01 12:42 | 21.65282 | -157.93896 | 8819 ft | 381 kts | 181° |
| 2026-05-01 12:42 | 21.62640 | -157.94091 | 8817 ft | 380 kts | 181° |
| 2026-05-01 12:42 | 21.60011 | -157.94283 | 8828 ft | 380 kts | 181° |
| 2026-05-01 12:42 | 21.57366 | -157.94477 | 8823 ft | 380 kts | 182° |
| 2026-05-01 12:43 | 21.54738 | -157.94671 | 8710 ft | 374 kts | 182° |
| 2026-05-01 12:43 | 21.52152 | -157.94863 | 8165 ft | 371 kts | 181° |
| 2026-05-01 12:43 | 21.49594 | -157.95051 | 7462 ft | 367 kts | 180° |
| 2026-05-01 12:43 | 21.47051 | -157.95238 | 6726 ft | 366 kts | 180° |
| 2026-05-01 12:44 | 21.44541 | -157.95422 | 5947 ft | 357 kts | 180° |
| 2026-05-01 12:44 | 21.42047 | -157.95604 | 5097 ft | 359 kts | 180° |
| 2026-05-01 12:44 | 21.37077 | -157.95966 | 3656 ft | 355 kts | 180° |
| 2026-05-01 12:45 | 21.32158 | -157.96323 | 3248 ft | 361 kts | 180° |
| 2026-05-01 12:45 | 21.29648 | -157.96506 | 3135 ft | 356 kts | 180° |
| 2026-05-01 12:45 | 21.27193 | -157.96687 | 3107 ft | 354 kts | 180° |
| 2026-05-01 12:46 | 21.24725 | -157.96891 | 3109 ft | 356 kts | 184° |
| 2026-05-01 12:46 | 21.22366 | -157.97750 | 3112 ft | 362 kts | 205° |
| 2026-05-01 12:46 | 21.20169 | -157.99072 | 3106 ft | 363 kts | 206° |
| 2026-05-01 12:46 | 21.17969 | -158.00387 | 3098 ft | 362 kts | 205° |
| 2026-05-01 12:47 | 21.15734 | -158.01673 | 3036 ft | 364 kts | 205° |
| 2026-05-01 12:47 | 21.13500 | -158.02927 | 3010 ft | 361 kts | 204° |
| 2026-05-01 12:47 | 21.11259 | -158.04173 | 2999 ft | 361 kts | 204° |
| 2026-05-01 12:47 | 21.08905 | -158.04976 | 2986 ft | 352 kts | 180° |
| 2026-05-01 12:48 | 21.06544 | -158.04583 | 3002 ft | 342 kts | 155° |
| 2026-05-01 12:48 | 21.04352 | -158.03585 | 2986 ft | 343 kts | 153° |
| 2026-05-01 12:48 | 21.02139 | -158.02690 | 2995 ft | 345 kts | 156° |
| 2026-05-01 12:48 | 20.99851 | -158.01899 | 2970 ft | 348 kts | 163° |
| 2026-05-01 12:49 | 20.97418 | -158.01902 | 2970 ft | 358 kts | 191° |
| 2026-05-01 12:49 | 20.95202 | -158.03120 | 2956 ft | 361 kts | 219° |
| 2026-05-01 12:49 | 20.93773 | -158.05242 | 2954 ft | 345 kts | 248° |
| 2026-05-01 12:49 | 20.93469 | -158.07685 | 2956 ft | 323 kts | 279° |
| 2026-05-01 12:50 | 20.94274 | -158.09792 | 2948 ft | 297 kts | 313° |
| 2026-05-01 12:50 | 20.95851 | -158.11000 | 2959 ft | 268 kts | 346° |
| 2026-05-01 12:50 | 20.97575 | -158.11557 | 2962 ft | 251 kts | 349° |
| 2026-05-01 12:50 | 20.99190 | -158.11558 | 2964 ft | 224 kts | 27° |
| 2026-05-01 12:51 | 21.00281 | -158.10497 | 2972 ft | 213 kts | 68° |
| 2026-05-01 12:51 | 21.00354 | -158.08949 | 2997 ft | 214 kts | 103° |
| 2026-05-01 12:51 | 21.01071 | -158.06130 | 2982 ft | 221 kts | 36° |
| 2026-05-01 12:52 | 21.02590 | -158.05767 | 2989 ft | 233 kts | 4° |
| 2026-05-01 12:52 | 21.05563 | -158.05074 | 2999 ft | 217 kts | 23° |
| 2026-05-01 12:52 | 21.06969 | -158.04626 | 3008 ft | 207 kts | 22° |
| 2026-05-01 12:53 | 21.09722 | -158.03723 | 3008 ft | 203 kts | 22° |
| 2026-05-01 12:53 | 21.11021 | -158.03286 | 2988 ft | 194 kts | 24° |
| 2026-05-01 12:53 | 21.12276 | -158.02857 | 2990 ft | 184 kts | 25° |
| 2026-05-01 12:54 | 21.13502 | -158.02433 | 3005 ft | 188 kts | 25° |
| 2026-05-01 12:54 | 21.16036 | -158.01552 | 3002 ft | 191 kts | 24° |
| 2026-05-01 12:54 | 21.17285 | -158.01089 | 3003 ft | 188 kts | 30° |
| 2026-05-01 12:55 | 21.19509 | -157.99772 | 2984 ft | 168 kts | 35° |
| 2026-05-01 12:55 | 21.20448 | -157.99210 | 2966 ft | 141 kts | 37° |
| 2026-05-01 12:55 | 21.21255 | -157.98723 | 2883 ft | 136 kts | 38° |
| 2026-05-01 12:56 | 21.22176 | -157.98195 | 2778 ft | 158 kts | 28° |
| 2026-05-01 12:56 | 21.23158 | -157.97809 | 2698 ft | 141 kts | 28° |
| 2026-05-01 12:56 | 21.24080 | -157.97492 | 2375 ft | 141 kts | 24° |
| 2026-05-01 12:56 | 21.25065 | -157.97273 | 2023 ft | 145 kts | 21° |
| 2026-05-01 12:57 | 21.26013 | -157.97014 | 1679 ft | 135 kts | 25° |
| 2026-05-01 12:57 | 21.27592 | -157.96118 | 1207 ft | 134 kts | 25° |
| 2026-05-01 12:57 | 21.28466 | -157.95783 | 1252 ft | 127 kts | 26° |
| 2026-05-01 12:58 | 21.29284 | -157.95413 | 888 ft | 138 kts | 34° |
| 2026-05-01 12:58 | 21.29998 | -157.94786 | 646 ft | 127 kts | 52° |
| 2026-05-01 12:58 | 21.30485 | -157.94000 | 278 ft | 129 kts | 53° |
| 2026-05-01 12:59 | 21.31619 | -157.92398 | 43 ft | 140 kts | 54° |
| 2026-05-01 12:59 | 21.32150 | -157.91645 | 23 ft | 113 kts | 53° |
| 2026-05-01 12:59 | 21.32737 | -157.90798 | 19 ft | 30 kts | 54° |
| 2026-05-01 13:00 | 21.32888 | -157.90642 | 16 ft | 3 kts | 331° |
| 2026-05-01 13:00 | 21.32890 | -157.90644 | 16 ft | 0 kts | 325° |
| 2026-05-01 13:01 | 21.32892 | -157.90645 | 16 ft | 0 kts | 324° |
| 2026-05-01 13:01 | 21.32900 | -157.90652 | 16 ft | 4 kts | 321° |
| 2026-05-01 13:01 | 21.33046 | -157.90812 | 15 ft | 19 kts | 273° |
| 2026-05-01 13:02 | 21.33000 | -157.90941 | 18 ft | 19 kts | 241° |
| 2026-05-01 13:07 | 21.33108 | -157.91079 | 19 ft | 0 kts | 321° |